Time;durP1;ratioP1;P1;durP2;ratioP2;P2;SDS_P1;SDS_P2;PMS_P1;PMS_P2;Temp;Humidity;BMP_temperature;BMP_pressure;BME280_temperature;BME280_humidity;BME280_pressure;Samples;Min_cycle;Max_cycle;Signal;HPM_P1;HPM_P2
2022/03/08 00:01:40;;;;;;;24.20;9.48;;;;;;;2.29;74.75;101443.19;5074622;28;20037;-66
2022/03/08 00:04:05;;;;;;;24.05;10.02;;;;;;;2.21;74.87;101444.69;5076127;28;20060;-66
2022/03/08 00:06:31;;;;;;;28.63;10.48;;;;;;;2.14;75.04;101435.84;5075537;28;20434;-66
2022/03/08 00:08:56;;;;;;;27.00;10.88;;;;;;;2.09;75.64;101436.53;5075627;28;20028;-66
2022/03/08 00:11:22;;;;;;;23.85;9.85;;;;;;;2.00;75.71;101437.16;5075870;28;20037;-66
2022/03/08 00:13:50;;;;;;;21.48;8.85;;;;;;;1.93;75.87;101430.03;5075879;28;20035;-66
2022/03/08 00:16:16;;;;;;;29.38;9.98;;;;;;;1.91;75.97;101429.09;5075568;28;20043;-65
2022/03/08 00:18:44;;;;;;;25.58;10.25;;;;;;;1.86;76.31;101433.25;5073729;28;20094;-66
2022/03/08 00:21:10;;;;;;;24.52;9.85;;;;;;;1.84;76.42;101434.94;5074608;28;20036;-66
2022/03/08 00:23:36;;;;;;;19.70;8.93;;;;;;;1.69;76.89;101431.03;5073442;28;20502;-66
2022/03/08 00:26:02;;;;;;;18.02;8.10;;;;;;;1.61;77.10;101427.31;5073570;28;20032;-66
2022/03/08 00:28:28;;;;;;;18.20;8.75;;;;;;;1.53;77.34;101417.56;5073676;28;20028;-65
2022/03/08 00:30:54;;;;;;;19.63;8.93;;;;;;;1.42;77.82;101419.78;5072350;28;20131;-65
2022/03/08 00:33:20;;;;;;;17.80;8.38;;;;;;;1.34;78.17;101416.06;5074903;28;20487;-65
2022/03/08 00:35:46;;;;;;;19.27;7.80;;;;;;;1.29;78.23;101422.81;5070406;28;20547;-65
2022/03/08 00:38:12;;;;;;;18.20;7.40;;;;;;;1.23;78.63;101418.31;5056653;28;20111;-66
2022/03/08 00:40:37;;;;;;;14.07;6.30;;;;;;;1.16;78.95;101416.38;5055224;28;20128;-65
2022/03/08 00:43:02;;;;;;;18.40;8.25;;;;;;;1.07;79.39;101423.81;5054978;28;20039;-64
2022/03/08 00:45:28;;;;;;;18.73;8.38;;;;;;;0.99;79.29;101418.38;5069919;28;20025;-65
2022/03/08 00:47:54;;;;;;;20.95;8.80;;;;;;;0.92;80.46;101431.97;5056568;28;20041;-65
2022/03/08 00:50:22;;;;;;;21.83;9.80;;;;;;;0.97;80.19;101431.28;5044837;28;20388;-66
2022/03/08 00:52:48;;;;;;;19.33;8.75;;;;;;;0.96;80.79;101433.81;5073269;28;20040;-65
2022/03/08 00:55:15;;;;;;;18.10;6.90;;;;;;;0.94;80.80;101438.06;5051269;28;20116;-65
2022/03/08 00:57:42;;;;;;;17.65;7.45;;;;;;;1.05;80.39;101439.31;5053404;28;20037;-65
2022/03/08 01:00:10;;;;;;;16.95;7.93;;;;;;;1.05;80.24;101433.25;5055519;28;20033;-65
2022/03/08 01:02:36;;;;;;;19.33;8.52;;;;;;;1.06;80.26;101435.88;5053179;28;20041;-64
2022/03/08 01:05:02;;;;;;;19.23;8.55;;;;;;;1.04;80.38;101442.72;5056652;28;20826;-64
2022/03/08 01:07:27;;;;;;;18.08;8.60;;;;;;;1.05;80.03;101441.88;5053373;28;20068;-65
2022/03/08 01:09:53;;;;;;;23.20;9.43;;;;;;;0.97;80.25;101444.22;5071567;28;20028;-65
2022/03/08 01:12:18;;;;;;;18.10;8.40;;;;;;;0.98;80.54;101437.31;5074421;28;20029;-67
2022/03/08 01:14:44;;;;;;;17.70;7.88;;;;;;;0.97;80.34;101431.28;5058644;28;20044;-65
2022/03/08 01:17:10;;;;;;;18.67;7.70;;;;;;;0.97;80.22;101430.41;5076126;28;20137;-65
2022/03/08 01:19:35;;;;;;;17.10;8.55;;;;;;;0.98;80.13;101419.22;5054309;28;20079;-65
2022/03/08 01:22:00;;;;;;;14.73;7.32;;;;;;;0.98;80.18;101430.44;5054219;28;20033;-65
2022/03/08 01:24:28;;;;;;;17.85;8.38;;;;;;;1.02;80.10;101433.13;5054564;28;20037;-65
2022/03/08 01:26:54;;;;;;;17.60;7.72;;;;;;;0.99;80.23;101437.38;5061161;28;20033;-65
2022/03/08 01:29:19;;;;;;;14.50;7.75;;;;;;;0.98;80.79;101442.50;5072390;28;20059;-65
2022/03/08 01:31:44;;;;;;;17.33;7.90;;;;;;;1.00;80.58;101446.03;5055994;28;20487;-65
2022/03/08 01:34:10;;;;;;;16.05;7.45;;;;;;;0.99;80.59;101437.38;5071153;28;20115;-65
2022/03/08 01:36:35;;;;;;;17.98;8.50;;;;;;;1.02;80.38;101428.84;5041482;28;20195;-65
2022/03/08 01:39:03;;;;;;;18.90;8.77;;;;;;;0.98;80.32;101438.19;5069304;28;20044;-65
2022/03/08 01:41:28;;;;;;;16.75;8.18;;;;;;;0.94;80.69;101443.22;5055938;28;20041;-64
2022/03/08 01:43:54;;;;;;;16.58;7.82;;;;;;;0.91;80.91;101440.53;5059387;28;20029;-64
2022/03/08 01:46:19;;;;;;;16.60;7.82;;;;;;;0.96;80.64;101439.88;5054740;28;20028;-65
2022/03/08 01:48:45;;;;;;;15.18;6.88;;;;;;;0.94;80.70;101436.34;5054487;28;20383;-64
2022/03/08 01:51:13;;;;;;;12.52;6.55;;;;;;;0.96;80.30;101429.53;5059497;28;20036;-64
2022/03/08 01:53:40;;;;;;;12.82;6.93;;;;;;;0.92;80.72;101424.19;5072570;28;20024;-64
2022/03/08 01:56:08;;;;;;;15.00;7.18;;;;;;;0.92;80.56;101432.84;5052304;28;20094;-65
2022/03/08 01:58:34;;;;;;;15.00;6.80;;;;;;;0.97;80.72;101430.41;5086008;28;20127;-64
2022/03/08 02:00:59;;;;;;;15.95;7.50;;;;;;;1.07;80.13;101424.69;5054178;28;20072;-64
2022/03/08 02:03:25;;;;;;;14.45;7.55;;;;;;;1.16;80.10;101419.84;5038792;28;20116;-65
2022/03/08 02:05:50;;;;;;;14.88;7.82;;;;;;;1.27;80.04;101420.16;5065645;28;20033;-64
2022/03/08 02:08:16;;;;;;;15.30;7.75;;;;;;;1.38;79.62;101425.69;5055658;28;20091;-65
2022/03/08 02:10:41;;;;;;;17.55;9.45;;;;;;;1.48;79.43;101420.00;5073718;28;20029;-64
2022/03/08 02:13:07;;;;;;;14.27;7.63;;;;;;;1.55;79.18;101421.06;5071710;28;20391;-64
2022/03/08 02:15:32;;;;;;;16.30;8.55;;;;;;;1.62;79.09;101418.69;5052194;28;20071;-64
2022/03/08 02:18:00;;;;;;;17.30;8.30;;;;;;;1.70;78.55;101417.22;5052696;28;20503;-64
2022/03/08 02:20:26;;;;;;;14.30;7.38;;;;;;;1.77;77.84;101418.31;5068440;28;20044;-64
2022/03/08 02:22:52;;;;;;;12.18;6.57;;;;;;;1.77;78.26;101417.44;5052483;28;20041;-65
2022/03/08 02:25:19;;;;;;;15.75;8.20;;;;;;;1.71;77.94;101413.78;5053439;28;20059;-65
2022/03/08 02:27:51;;;;;;;11.93;6.60;;;;;;;1.70;78.87;101417.22;5097422;28;20138;-65
2022/03/08 02:30:18;;;;;;;13.88;6.28;;;;;;;1.76;78.73;101419.16;5072138;28;20037;-65
2022/03/08 02:32:44;;;;;;;12.85;6.68;;;;;;;1.80;78.41;101412.34;5054453;28;20033;-65
2022/03/08 02:35:16;;;;;;;13.13;6.07;;;;;;;1.92;78.13;101408.41;5070531;28;20060;-65
2022/03/08 02:37:44;;;;;;;10.07;5.15;;;;;;;1.92;77.95;101415.31;5059083;28;20041;-65
2022/03/08 02:40:13;;;;;;;9.38;5.35;;;;;;;1.78;78.64;101414.00;5102435;28;20033;-65
2022/03/08 02:42:39;;;;;;;9.05;5.53;;;;;;;1.91;78.61;101408.34;5071799;28;20089;-65
2022/03/08 02:45:07;;;;;;;10.13;5.22;;;;;;;1.90;79.18;101404.00;5040884;28;20093;-65
2022/03/08 02:47:32;;;;;;;10.90;5.35;;;;;;;1.94;78.88;101401.53;5039715;28;20061;-66
2022/03/08 02:49:57;;;;;;;11.40;5.45;;;;;;;1.88;79.11;101403.09;5058204;28;20476;-66
2022/03/08 02:52:23;;;;;;;12.35;5.25;;;;;;;1.83;80.71;101409.81;5058162;28;20120;-66
2022/03/08 02:54:49;;;;;;;11.77;5.28;;;;;;;1.85;79.99;101413.38;5060990;28;20040;-66
2022/03/08 02:57:14;;;;;;;10.93;5.78;;;;;;;1.82;80.45;101423.63;5057833;28;20118;-66
2022/03/08 02:59:40;;;;;;;10.68;5.45;;;;;;;1.79;80.95;101427.00;5057268;28;20130;-66
2022/03/08 03:02:05;;;;;;;10.32;5.90;;;;;;;1.80;81.08;101427.91;5068803;28;20121;-65
2022/03/08 03:04:32;;;;;;;12.20;5.60;;;;;;;1.85;80.96;101428.91;5064263;28;20391;-65
2022/03/08 03:06:58;;;;;;;12.52;5.95;;;;;;;1.81;80.47;101425.34;5078061;28;20037;-65
2022/03/08 03:09:24;;;;;;;9.98;5.47;;;;;;;1.75;81.16;101424.25;5055521;28;20475;-65
2022/03/08 03:11:49;;;;;;;9.00;5.18;;;;;;;1.53;81.31;101420.13;5064567;28;20032;-65
2022/03/08 03:14:14;;;;;;;8.75;4.15;;;;;;;1.55;81.02;101421.06;5076122;28;20491;-65
2022/03/08 03:16:40;;;;;;;8.63;5.03;;;;;;;1.29;82.03;101412.47;5059502;28;20037;-65
2022/03/08 03:19:05;;;;;;;13.90;7.18;;;;;;;1.33;81.47;101411.75;5056665;28;20041;-65
2022/03/08 03:21:31;;;;;;;13.13;6.53;;;;;;;1.21;81.52;101417.41;5071311;28;20387;-66
2022/03/08 03:23:56;;;;;;;10.13;5.63;;;;;;;1.15;81.66;101412.88;5076553;28;20032;-66
2022/03/08 03:26:22;;;;;;;8.30;5.18;;;;;;;1.12;82.29;101425.75;5074532;28;20036;-65
2022/03/08 03:28:47;;;;;;;8.73;4.45;;;;;;;1.08;82.39;101428.16;5076336;28;20041;-65
2022/03/08 03:31:13;;;;;;;9.85;4.97;;;;;;;0.99;82.92;101418.38;5074616;28;20043;-65
2022/03/08 03:33:38;;;;;;;8.30;4.28;;;;;;;0.97;83.21;101414.88;5076700;28;20052;-65
2022/03/08 03:36:04;;;;;;;8.45;4.78;;;;;;;0.94;83.29;101414.75;5065097;28;20458;-66
2022/03/08 03:38:29;;;;;;;9.88;5.63;;;;;;;0.89;83.35;101416.31;5061559;28;20036;-65
2022/03/08 03:40:55;;;;;;;9.40;4.40;;;;;;;0.89;83.37;101421.50;5068210;28;20071;-66
2022/03/08 03:43:20;;;;;;;9.68;5.22;;;;;;;0.86;83.92;101422.25;5068262;28;20350;-65
2022/03/08 03:45:45;;;;;;;9.73;4.45;;;;;;;0.86;83.79;101427.44;5055982;28;20519;-65
2022/03/08 03:48:11;;;;;;;6.93;3.80;;;;;;;0.86;84.32;101423.97;5068656;28;20040;-65
2022/03/08 03:50:37;;;;;;;6.07;2.92;;;;;;;0.86;84.39;101431.72;5071024;28;20033;-66
2022/03/08 03:53:03;;;;;;;7.28;3.90;;;;;;;0.83;84.41;101427.31;5054555;28;20048;-66
2022/03/08 03:55:28;;;;;;;7.97;3.97;;;;;;;0.82;83.66;101433.31;5061865;28;20028;-66
2022/03/08 03:57:54;;;;;;;9.48;3.90;;;;;;;0.79;83.79;101427.16;5074120;28;20037;-66
2022/03/08 04:00:19;;;;;;;9.02;4.10;;;;;;;0.73;83.87;101428.72;5075470;28;20089;-66
2022/03/08 04:02:45;;;;;;;6.40;3.50;;;;;;;0.71;83.74;101430.34;5058010;28;20036;-65
2022/03/08 04:05:12;;;;;;;9.77;4.70;;;;;;;0.63;82.84;101431.78;5071158;28;20081;-66
2022/03/08 04:07:37;;;;;;;8.57;4.50;;;;;;;0.63;83.31;101434.38;5055233;28;20186;-66
2022/03/08 04:10:08;;;;;;;6.63;3.80;;;;;;;0.63;83.51;101425.75;5070916;28;20128;-65
2022/03/08 04:12:33;;;;;;;5.40;3.25;;;;;;;0.61;84.00;101419.66;5054563;28;20380;-66
2022/03/08 04:14:59;;;;;;;7.85;3.65;;;;;;;0.62;84.98;101427.47;5058470;28;20044;-66
2022/03/08 04:17:24;;;;;;;4.82;2.58;;;;;;;0.68;84.41;101424.22;5055540;28;20036;-66
2022/03/08 04:19:50;;;;;;;5.10;3.20;;;;;;;0.66;84.31;101423.28;5041158;28;20039;-66
2022/03/08 04:22:15;;;;;;;6.43;3.15;;;;;;;0.67;84.90;101425.91;5074448;28;20418;-66
2022/03/08 04:24:40;;;;;;;6.05;3.28;;;;;;;0.65;85.34;101427.56;5074678;28;20032;-66
2022/03/08 04:27:06;;;;;;;7.63;3.35;;;;;;;0.69;85.31;101428.56;5075176;28;20537;-66
2022/03/08 04:29:32;;;;;;;5.38;3.08;;;;;;;0.70;84.64;101431.19;5056419;28;20045;-66
2022/03/08 04:31:57;;;;;;;5.97;3.15;;;;;;;0.68;84.93;101425.09;5054583;28;20087;-66
2022/03/08 04:34:23;;;;;;;7.35;3.55;;;;;;;0.68;85.34;101429.41;5069429;28;20047;-66
2022/03/08 04:36:48;;;;;;;7.97;3.83;;;;;;;0.69;84.82;101428.56;5056960;28;20086;-66
2022/03/08 04:39:14;;;;;;;7.97;4.18;;;;;;;0.64;85.07;101424.91;5073023;28;20044;-66
2022/03/08 04:41:39;;;;;;;9.75;5.55;;;;;;;0.64;84.80;101431.00;5070383;28;20056;-66
2022/03/08 04:44:05;;;;;;;8.73;4.55;;;;;;;0.63;84.55;101424.03;5073528;28;20173;-65
2022/03/08 04:46:31;;;;;;;11.05;5.60;;;;;;;0.59;84.49;101435.09;5067280;28;20108;-65
2022/03/08 04:48:56;;;;;;;8.10;4.43;;;;;;;0.59;84.41;101429.94;5073291;28;20036;-65
2022/03/08 04:51:21;;;;;;;10.85;4.30;;;;;;;0.55;83.81;101440.13;5066863;28;20111;-66
2022/03/08 04:53:47;;;;;;;8.80;4.00;;;;;;;0.51;84.13;101430.50;5053181;28;20071;-65
2022/03/08 04:56:12;;;;;;;10.23;4.40;;;;;;;0.46;84.18;101435.50;5054005;28;20534;-65
2022/03/08 04:58:38;;;;;;;6.97;4.65;;;;;;;0.42;84.15;101442.25;5055565;28;20040;-65
2022/03/08 05:01:03;;;;;;;8.18;4.47;;;;;;;0.39;84.71;101434.38;5053185;28;20099;-65
2022/03/08 05:03:29;;;;;;;7.32;4.18;;;;;;;0.38;84.51;101429.16;5061013;28;20051;-66
2022/03/08 05:05:54;;;;;;;10.05;5.40;;;;;;;0.40;84.53;101445.59;5072416;28;20051;-65
2022/03/08 05:08:19;;;;;;;8.13;4.03;;;;;;;0.41;85.11;101443.09;5067161;28;20032;-66
2022/03/08 05:10:45;;;;;;;7.35;4.18;;;;;;;0.39;86.15;101451.59;5054570;28;20469;-64
2022/03/08 05:13:10;;;;;;;9.20;4.65;;;;;;;0.42;86.51;101450.03;5054841;28;20086;-64
2022/03/08 05:15:36;;;;;;;6.53;4.20;;;;;;;0.51;85.37;101449.47;5054278;28;20086;-64
2022/03/08 05:18:02;;;;;;;6.35;3.90;;;;;;;0.47;85.82;101447.59;5063074;28;20174;-64
2022/03/08 05:20:28;;;;;;;7.70;4.03;;;;;;;0.47;85.39;101458.81;5056282;28;20078;-64
2022/03/08 05:22:53;;;;;;;7.07;3.83;;;;;;;0.50;84.55;101452.88;5066388;28;20123;-65
2022/03/08 05:25:19;;;;;;;7.82;4.05;;;;;;;0.49;84.63;101456.31;5057636;28;20038;-66
2022/03/08 05:27:44;;;;;;;8.93;4.90;;;;;;;0.48;84.38;101451.97;5072822;28;20059;-66
2022/03/08 05:30:12;;;;;;;9.95;5.65;;;;;;;0.50;84.54;101452.88;5070410;28;20404;-66
2022/03/08 05:32:37;;;;;;;11.15;5.47;;;;;;;0.48;84.15;101455.44;5053020;28;20048;-65
2022/03/08 05:35:03;;;;;;;11.65;6.22;;;;;;;0.51;83.81;101454.63;5054203;28;20056;-65
2022/03/08 05:37:28;;;;;;;11.07;6.90;;;;;;;0.52;83.61;101447.75;5093002;28;20435;-65
2022/03/08 05:39:54;;;;;;;23.40;12.65;;;;;;;0.61;82.93;101455.88;5073382;28;20113;-65
2022/03/08 05:42:19;;;;;;;14.10;7.85;;;;;;;0.66;82.47;101465.53;5073907;28;20033;-65
2022/03/08 05:44:44;;;;;;;12.27;6.47;;;;;;;0.71;81.91;101466.56;5072479;28;20369;-64
2022/03/08 05:47:10;;;;;;;14.05;8.38;;;;;;;0.66;81.56;101464.66;5057329;28;20029;-65
2022/03/08 05:49:35;;;;;;;14.25;8.48;;;;;;;0.63;81.51;101467.13;5057797;28;20037;-65
2022/03/08 05:52:01;;;;;;;11.15;7.55;;;;;;;0.68;81.35;101468.22;5068923;28;20093;-65
2022/03/08 05:54:26;;;;;;;14.18;8.13;;;;;;;0.69;80.90;101472.53;5068886;28;20035;-65
2022/03/08 05:56:51;;;;;;;10.10;6.20;;;;;;;0.76;80.41;101463.28;5046300;28;20135;-65
2022/03/08 05:59:17;;;;;;;9.98;5.72;;;;;;;0.75;80.24;101480.50;5058058;28;20503;-64
2022/03/08 06:01:42;;;;;;;12.13;6.38;;;;;;;0.78;80.41;101478.03;5070581;28;20120;-65
2022/03/08 06:04:08;;;;;;;9.45;5.22;;;;;;;0.86;80.01;101470.53;5067485;28;20032;-65
2022/03/08 06:06:33;;;;;;;9.25;5.78;;;;;;;0.91;79.61;101469.00;5054459;28;20508;-64
2022/03/08 06:08:59;;;;;;;10.70;6.43;;;;;;;0.95;79.30;101474.31;5053575;28;20037;-64
2022/03/08 06:11:24;;;;;;;11.13;6.38;;;;;;;1.08;79.18;101473.06;5044987;28;20044;-64
2022/03/08 06:13:50;;;;;;;11.15;6.35;;;;;;;1.21;78.67;101483.00;5070747;28;20040;-64
2022/03/08 06:16:15;;;;;;;11.48;6.00;;;;;;;1.31;78.51;101478.13;5073518;28;20127;-65
2022/03/08 06:18:41;;;;;;;9.88;7.10;;;;;;;1.48;78.00;101474.41;5056249;28;20047;-64
2022/03/08 06:21:06;;;;;;;9.80;6.28;;;;;;;1.60;77.42;101484.28;5056559;28;20388;-64
2022/03/08 06:23:31;;;;;;;11.57;7.25;;;;;;;1.77;77.04;101501.22;5072605;28;20602;-65
2022/03/08 06:25:57;;;;;;;9.07;5.65;;;;;;;1.88;76.29;101493.81;5054200;28;20036;-64
2022/03/08 06:28:22;;;;;;;11.18;7.65;;;;;;;1.90;75.74;101498.19;5057594;28;20112;-66
2022/03/08 06:30:48;;;;;;;11.90;7.22;;;;;;;1.89;75.42;101505.94;5071861;28;20044;-66
2022/03/08 06:33:13;;;;;;;9.90;6.03;;;;;;;1.89;76.00;101504.22;5073012;28;20059;-66
2022/03/08 06:35:38;;;;;;;9.90;5.95;;;;;;;2.02;75.47;101500.28;5060251;28;20048;-66
2022/03/08 06:38:04;;;;;;;10.18;5.82;;;;;;;2.16;75.13;101499.00;5063354;28;20029;-66
2022/03/08 06:40:29;;;;;;;11.02;6.93;;;;;;;2.33;75.04;101506.41;5052366;28;20055;-66
2022/03/08 06:42:55;;;;;;;13.18;8.65;;;;;;;2.46;74.19;101506.81;5038202;28;20044;-64
2022/03/08 06:45:20;;;;;;;22.25;13.25;;;;;;;2.58;73.98;101514.06;5068327;28;20037;-65
2022/03/08 06:47:46;;;;;;;10.82;6.60;;;;;;;2.69;73.42;101512.66;5075659;28;20107;-65
2022/03/08 06:50:11;;;;;;;10.88;6.03;;;;;;;2.66;73.20;101512.56;5072202;28;20072;-65
2022/03/08 06:52:37;;;;;;;12.65;7.88;;;;;;;2.82;73.05;101502.63;5055212;28;20040;-65
2022/03/08 06:55:03;;;;;;;9.10;5.18;;;;;;;2.75;72.39;101501.56;5074966;28;20040;-65
2022/03/08 06:57:29;;;;;;;9.05;5.18;;;;;;;2.65;72.92;101497.84;5054925;28;20543;-65
2022/03/08 06:59:55;;;;;;;32.85;20.27;;;;;;;2.48;73.63;101493.91;5073813;28;20365;-65
2022/03/08 07:02:21;;;;;;;11.15;6.05;;;;;;;2.56;73.73;101491.53;5073160;28;20106;-65
2022/03/08 07:04:46;;;;;;;8.90;5.82;;;;;;;2.63;73.69;101499.53;5074162;28;20090;-64
2022/03/08 07:07:12;;;;;;;8.80;5.43;;;;;;;2.63;74.09;101498.63;5074941;28;20071;-64
2022/03/08 07:09:38;;;;;;;7.80;5.13;;;;;;;2.70;73.80;101496.25;5075140;28;20040;-65
2022/03/08 07:12:04;;;;;;;10.25;5.35;;;;;;;2.88;73.04;101490.69;5075687;28;20033;-65
2022/03/08 07:14:29;;;;;;;6.97;4.32;;;;;;;3.02;73.08;101498.84;5074820;28;20310;-65
2022/03/08 07:16:55;;;;;;;8.45;5.28;;;;;;;3.02;72.93;101498.84;5072780;28;20449;-65
2022/03/08 07:19:20;;;;;;;8.07;4.95;;;;;;;3.01;73.30;101491.91;5067972;28;20052;-66
2022/03/08 07:21:46;;;;;;;8.38;4.75;;;;;;;3.08;73.12;101486.03;5072961;28;20037;-66
2022/03/08 07:24:13;;;;;;;7.32;4.13;;;;;;;3.22;72.98;101487.25;5068437;28;20041;-66
2022/03/08 07:26:38;;;;;;;10.00;6.80;;;;;;;3.38;72.60;101479.88;5055921;28;20057;-65
2022/03/08 07:29:04;;;;;;;10.30;5.40;;;;;;;3.48;72.30;101487.06;5068870;28;20119;-65
2022/03/08 07:31:29;;;;;;;7.18;4.25;;;;;;;3.69;71.86;101487.56;5039610;28;20400;-65
2022/03/08 07:33:55;;;;;;;8.48;5.05;;;;;;;3.70;71.77;101480.66;5075796;28;20033;-65
2022/03/08 07:36:21;;;;;;;7.82;5.20;;;;;;;3.82;71.71;101490.47;5057008;28;20438;-65
2022/03/08 07:38:47;;;;;;;7.75;4.28;;;;;;;4.01;70.93;101496.97;5074002;28;20044;-65
2022/03/08 07:41:13;;;;;;;7.35;4.43;;;;;;;4.20;70.41;101505.22;5072562;28;20532;-65
2022/03/08 07:43:39;;;;;;;7.93;4.30;;;;;;;4.25;70.00;101517.47;5075102;28;20515;-65
2022/03/08 07:46:06;;;;;;;6.53;3.47;;;;;;;4.40;69.49;101515.19;5072522;28;20040;-65
2022/03/08 07:48:32;;;;;;;11.73;7.35;;;;;;;4.50;69.63;101519.75;5072719;28;20044;-65
2022/03/08 07:50:58;;;;;;;10.00;6.47;;;;;;;4.68;69.13;101521.84;5073639;28;20475;-65
2022/03/08 07:53:23;;;;;;;11.43;7.93;;;;;;;4.83;68.82;101503.94;5074998;28;20028;-65
2022/03/08 07:55:49;;;;;;;11.90;6.82;;;;;;;4.99;68.20;101505.13;5075671;28;20043;-65
2022/03/08 07:58:15;;;;;;;14.05;6.47;;;;;;;5.08;67.55;101502.69;5075198;28;20029;-64
2022/03/08 08:00:41;;;;;;;13.02;6.03;;;;;;;5.08;66.82;101492.25;5070715;28;20033;-65
2022/03/08 08:03:07;;;;;;;10.10;5.38;;;;;;;5.11;67.02;101486.25;5072862;28;20041;-65
2022/03/08 08:05:37;;;;;;;10.73;5.70;;;;;;;5.14;66.87;101488.88;5073546;28;20039;-65
2022/03/08 08:08:04;;;;;;;9.02;5.10;;;;;;;5.21;66.66;101484.66;5074133;28;20024;-65
2022/03/08 08:10:30;;;;;;;7.47;4.78;;;;;;;5.27;66.75;101475.25;5057396;28;20063;-65
2022/03/08 08:12:55;;;;;;;7.13;4.22;;;;;;;5.42;66.28;101475.47;5075406;28;20063;-65
2022/03/08 08:15:20;;;;;;;7.70;4.22;;;;;;;5.49;65.82;101492.09;5074035;28;20028;-65
2022/03/08 08:17:46;;;;;;;8.68;4.45;;;;;;;5.56;65.58;101493.97;5075241;28;20549;-65
2022/03/08 08:20:11;;;;;;;7.93;4.03;;;;;;;5.64;65.42;101483.66;5075172;28;20028;-65
2022/03/08 08:22:37;;;;;;;5.25;3.20;;;;;;;5.71;65.05;101480.31;5075386;28;20549;-65
2022/03/08 08:25:04;;;;;;;7.97;3.33;;;;;;;5.85;64.56;101480.50;5057196;28;20036;-65
2022/03/08 08:27:30;;;;;;;6.13;3.10;;;;;;;5.76;64.47;101488.19;5073819;28;20064;-65
2022/03/08 08:29:55;;;;;;;5.00;3.17;;;;;;;5.80;64.25;101484.78;5075080;28;20063;-65
2022/03/08 08:32:21;;;;;;;6.20;3.38;;;;;;;5.66;64.10;101490.66;5073603;28;20087;-65
2022/03/08 08:34:46;;;;;;;8.13;3.97;;;;;;;5.72;63.74;101483.78;5072330;28;20056;-65
2022/03/08 08:37:12;;;;;;;13.48;5.38;;;;;;;5.86;63.74;101484.88;5074454;28;20465;-65
2022/03/08 08:39:38;;;;;;;10.02;4.95;;;;;;;5.92;63.36;101478.06;5073334;28;20037;-65
2022/03/08 08:42:04;;;;;;;7.30;4.30;;;;;;;6.02;62.87;101479.03;5056148;28;20067;-65
2022/03/08 08:44:30;;;;;;;7.20;4.15;;;;;;;6.15;62.88;101483.59;5074400;28;20059;-65
2022/03/08 08:46:55;;;;;;;9.38;5.57;;;;;;;6.35;62.38;101491.72;5074767;28;20403;-65
2022/03/08 08:49:21;;;;;;;10.45;4.55;;;;;;;6.44;61.58;101475.28;5074367;28;20078;-65
2022/03/08 08:51:46;;;;;;;9.55;4.20;;;;;;;6.41;61.29;101477.84;5074382;28;20111;-65
2022/03/08 08:54:11;;;;;;;7.85;3.58;;;;;;;6.29;60.95;101468.13;5074427;28;20107;-65
2022/03/08 08:56:38;;;;;;;7.95;3.45;;;;;;;6.42;61.13;101469.16;5074686;28;20043;-65
2022/03/08 08:59:05;;;;;;;7.00;3.83;;;;;;;6.57;60.94;101469.34;5073475;28;20032;-65
2022/03/08 09:01:30;;;;;;;8.20;4.10;;;;;;;6.66;60.79;101469.47;5069359;28;20029;-65
2022/03/08 09:03:56;;;;;;;11.13;3.83;;;;;;;6.71;60.71;101472.13;5054378;28;20033;-65
2022/03/08 09:06:21;;;;;;;7.03;3.50;;;;;;;6.80;60.27;101466.13;5070146;28;20033;-65
2022/03/08 09:08:47;;;;;;;7.55;3.10;;;;;;;6.74;59.77;101469.53;5073275;28;20082;-65
2022/03/08 09:11:12;;;;;;;5.30;3.03;;;;;;;6.89;59.65;101466.22;5074067;28;20037;-65
2022/03/08 09:13:39;;;;;;;4.95;3.17;;;;;;;6.96;59.28;101457.59;5073353;28;20040;-65
2022/03/08 09:16:05;;;;;;;8.13;3.72;;;;;;;6.98;59.10;101460.22;5072841;28;20476;-65
2022/03/08 09:18:31;;;;;;;7.03;3.70;;;;;;;7.04;59.25;101449.84;5074245;28;20502;-64
2022/03/08 09:20:56;;;;;;;6.35;4.00;;;;;;;7.04;59.20;101442.88;5069666;28;20045;-65
2022/03/08 09:23:22;;;;;;;6.63;3.80;;;;;;;7.06;59.01;101432.41;5071156;28;20045;-65
2022/03/08 09:25:47;;;;;;;7.55;3.78;;;;;;;7.05;58.64;101430.66;5073322;28;20040;-65
2022/03/08 09:28:12;;;;;;;9.32;4.93;;;;;;;7.02;58.84;101428.94;5072085;28;20024;-65
2022/03/08 09:30:38;;;;;;;9.20;3.75;;;;;;;7.00;58.68;101425.41;5073670;28;20060;-65
2022/03/08 09:33:05;;;;;;;6.53;3.33;;;;;;;7.08;58.64;101412.41;5073541;28;20436;-65
2022/03/08 09:35:31;;;;;;;6.32;3.42;;;;;;;7.10;58.40;101408.97;5071682;28;20048;-65
2022/03/08 09:37:56;;;;;;;7.45;3.63;;;;;;;7.25;58.08;101402.09;5073375;28;20392;-65
2022/03/08 09:40:23;;;;;;;8.55;4.60;;;;;;;7.32;56.72;101394.31;5073804;28;20380;-65
2022/03/08 09:42:51;;;;;;;5.22;2.92;;;;;;;7.44;56.95;101401.38;5060927;28;20044;-65
2022/03/08 09:45:17;;;;;;;6.10;2.80;;;;;;;7.46;56.63;101399.66;5072653;28;20152;-65
2022/03/08 09:47:43;;;;;;;4.70;3.00;;;;;;;7.64;56.21;101399.78;5073674;28;20029;-65
2022/03/08 09:50:11;;;;;;;9.63;5.65;;;;;;;7.70;55.45;101400.69;5072267;28;20020;-65
2022/03/08 09:52:39;;;;;;;9.07;3.80;;;;;;;7.76;55.48;101395.50;5056326;28;20043;-64
2022/03/08 09:55:06;;;;;;;7.32;3.80;;;;;;;7.89;55.38;101392.94;5072078;28;20029;-65
2022/03/08 09:57:32;;;;;;;8.55;4.65;;;;;;;7.94;54.79;101400.84;5052160;28;20039;-65
2022/03/08 09:59:58;;;;;;;8.27;3.60;;;;;;;8.03;54.09;101398.25;5053471;28;20127;-65
2022/03/08 10:02:23;;;;;;;6.85;2.97;;;;;;;7.93;53.63;101400.81;5053606;28;20112;-65
2022/03/08 10:05:03;;;;;;;6.35;3.38;;;;;;;8.07;53.44;101392.19;5068748;28;20032;-65
2022/03/08 10:07:29;;;;;;;7.30;3.80;;;;;;;8.19;53.92;101390.50;5066904;28;20102;-65
2022/03/08 10:09:57;;;;;;;10.60;6.10;;;;;;;8.18;53.44;101394.84;5051986;28;20476;-65
2022/03/08 10:12:23;;;;;;;7.05;3.63;;;;;;;8.30;53.48;101391.41;5066053;28;20047;-65
2022/03/08 10:14:48;;;;;;;21.23;12.73;;;;;;;8.43;53.00;101392.34;5073094;28;20039;-65
2022/03/08 10:17:39;;;;;;;15.20;5.18;;;;;;;8.52;51.15;101398.47;5075760;28;20032;-65
2022/03/08 10:20:08;;;;;;;6.25;3.72;;;;;;;8.53;52.45;101394.97;5072550;28;20036;-65
2022/03/08 10:22:38;;;;;;;8.90;5.72;;;;;;;8.58;51.51;101395.03;5069807;28;20040;-65
2022/03/08 10:25:20;;;;;;;7.95;4.20;;;;;;;8.62;50.45;101389.78;5072306;28;20105;-65
2022/03/08 10:27:52;;;;;;;5.05;3.05;;;;;;;8.63;50.53;101395.91;5073671;28;20032;-65
2022/03/08 10:30:17;;;;;;;4.85;2.97;;;;;;;8.66;51.69;101388.06;5071124;28;20139;-66
2022/03/08 10:32:43;;;;;;;11.75;9.85;;;;;;;8.75;51.95;101384.56;5069249;28;20112;-65
2022/03/08 10:35:10;;;;;;;6.68;4.22;;;;;;;8.80;51.29;101390.69;5055084;28;20049;-65
2022/03/08 10:37:38;;;;;;;5.20;3.10;;;;;;;8.76;51.45;101392.44;5071519;28;20136;-65
2022/03/08 10:40:09;;;;;;;4.15;2.55;;;;;;;8.77;50.53;101401.16;5072031;28;20056;-65
2022/03/08 10:42:39;;;;;;;4.40;2.60;;;;;;;8.88;51.09;101399.44;5071826;28;20039;-65
2022/03/08 10:45:14;;;;;;;3.60;2.40;;;;;;;8.99;50.47;101394.22;5068249;28;20033;-64
2022/03/08 10:47:50;;;;;;;7.85;2.88;;;;;;;9.08;50.54;101404.72;5065000;28;20024;-65
2022/03/08 10:50:18;;;;;;;6.78;3.35;;;;;;;9.07;50.44;101385.47;5071638;28;20094;-65
2022/03/08 10:52:46;;;;;;;5.90;2.50;;;;;;;9.03;49.99;101396.84;5069876;28;20096;-65
2022/03/08 10:55:12;;;;;;;6.15;2.65;;;;;;;9.11;50.48;101381.13;5072730;28;20033;-64
2022/03/08 10:57:39;;;;;;;7.72;5.43;;;;;;;9.25;50.50;101384.59;5071626;28;20463;-64
2022/03/08 11:00:11;;;;;;;6.90;4.13;;;;;;;9.36;50.51;101388.09;5066319;28;20040;-65
2022/03/08 11:02:46;;;;;;;6.07;3.08;;;;;;;9.32;49.23;101388.09;5072779;28;20120;-65
2022/03/08 11:05:12;;;;;;;5.95;3.08;;;;;;;9.32;50.09;101386.34;5070565;28;20033;-65
2022/03/08 11:07:38;;;;;;;9.07;5.40;;;;;;;9.34;50.30;101386.38;5073447;28;20487;-64
2022/03/08 11:10:06;;;;;;;7.72;4.03;;;;;;;9.34;50.39;101384.63;5076615;28;20036;-64
2022/03/08 11:12:31;;;;;;;5.88;3.40;;;;;;;9.36;50.37;101379.34;5074752;28;20059;-65
2022/03/08 11:14:57;;;;;;;5.43;2.83;;;;;;;9.47;50.28;101385.47;5075626;28;20484;-64
2022/03/08 11:17:23;;;;;;;6.18;2.80;;;;;;;9.54;50.25;101376.72;5076535;28;20029;-64
2022/03/08 11:19:49;;;;;;;7.97;4.22;;;;;;;9.62;50.11;101379.34;5075165;28;20028;-64
2022/03/08 11:22:18;;;;;;;8.38;3.70;;;;;;;9.59;49.95;101380.19;5075023;28;20034;-64
2022/03/08 11:24:44;;;;;;;5.82;3.40;;;;;;;9.51;50.05;101374.09;5074100;28;20031;-64